sensor_id;sensor_type;location;lat;lon;timestamp;temperature;humidity
13354;DHT22;6746;50.892;4.064;2023-07-13T00:00:16;15.80;99.90
13354;DHT22;6746;50.892;4.064;2023-07-13T00:02:54;15.80;99.90
13354;DHT22;6746;50.892;4.064;2023-07-13T00:05:40;15.70;99.90
13354;DHT22;6746;50.892;4.064;2023-07-13T00:08:19;15.60;99.90
13354;DHT22;6746;50.892;4.064;2023-07-13T00:11:03;15.60;99.90
13354;DHT22;6746;50.892;4.064;2023-07-13T00:13:38;15.50;99.90
13354;DHT22;6746;50.892;4.064;2023-07-13T00:16:16;15.50;99.90
13354;DHT22;6746;50.892;4.064;2023-07-13T00:18:54;15.50;99.90
13354;DHT22;6746;50.892;4.064;2023-07-13T00:21:41;15.50;99.90
13354;DHT22;6746;50.892;4.064;2023-07-13T00:24:19;15.50;99.90
13354;DHT22;6746;50.892;4.064;2023-07-13T00:27:00;15.50;99.90
13354;DHT22;6746;50.892;4.064;2023-07-13T00:29:38;15.40;99.90
13354;DHT22;6746;50.892;4.064;2023-07-13T00:32:24;15.40;99.90
13354;DHT22;6746;50.892;4.064;2023-07-13T00:35:02;15.40;99.90
13354;DHT22;6746;50.892;4.064;2023-07-13T00:37:50;15.40;99.90
13354;DHT22;6746;50.892;4.064;2023-07-13T00:40:31;15.40;99.90
13354;DHT22;6746;50.892;4.064;2023-07-13T00:43:18;15.30;99.90
13354;DHT22;6746;50.892;4.064;2023-07-13T00:48:37;15.30;99.90
13354;DHT22;6746;50.892;4.064;2023-07-13T00:51:20;15.20;99.90
13354;DHT22;6746;50.892;4.064;2023-07-13T00:53:59;15.20;99.90
13354;DHT22;6746;50.892;4.064;2023-07-13T00:56:35;15.20;99.90
13354;DHT22;6746;50.892;4.064;2023-07-13T00:59:13;15.10;99.90
13354;DHT22;6746;50.892;4.064;2023-07-13T01:02:01;15.10;99.90
13354;DHT22;6746;50.892;4.064;2023-07-13T01:04:39;15.10;99.90
13354;DHT22;6746;50.892;4.064;2023-07-13T01:07:18;15.10;99.90
13354;DHT22;6746;50.892;4.064;2023-07-13T01:09:56;15.10;99.90
13354;DHT22;6746;50.892;4.064;2023-07-13T01:12:34;15.10;99.90
13354;DHT22;6746;50.892;4.064;2023-07-13T01:15:40;15.00;99.90
13354;DHT22;6746;50.892;4.064;2023-07-13T01:18:23;15.00;99.90
13354;DHT22;6746;50.892;4.064;2023-07-13T01:21:10;15.00;99.90
13354;DHT22;6746;50.892;4.064;2023-07-13T01:23:48;15.00;99.90
13354;DHT22;6746;50.892;4.064;2023-07-13T01:26:27;15.00;99.90
13354;DHT22;6746;50.892;4.064;2023-07-13T01:29:05;15.00;99.90
13354;DHT22;6746;50.892;4.064;2023-07-13T01:31:43;14.90;99.90
13354;DHT22;6746;50.892;4.064;2023-07-13T01:34:24;14.90;99.90
13354;DHT22;6746;50.892;4.064;2023-07-13T01:37:03;14.90;99.90
13354;DHT22;6746;50.892;4.064;2023-07-13T01:39:50;14.90;99.90
13354;DHT22;6746;50.892;4.064;2023-07-13T01:42:28;14.80;99.90
13354;DHT22;6746;50.892;4.064;2023-07-13T01:45:06;14.70;99.90
13354;DHT22;6746;50.892;4.064;2023-07-13T01:47:54;14.70;99.90
13354;DHT22;6746;50.892;4.064;2023-07-13T01:50:32;14.70;99.90
13354;DHT22;6746;50.892;4.064;2023-07-13T01:53:10;14.70;99.90
13354;DHT22;6746;50.892;4.064;2023-07-13T01:55:51;14.70;99.90
13354;DHT22;6746;50.892;4.064;2023-07-13T01:58:29;14.70;99.90
13354;DHT22;6746;50.892;4.064;2023-07-13T02:01:12;14.60;99.90
13354;DHT22;6746;50.892;4.064;2023-07-13T02:03:51;14.60;99.90
13354;DHT22;6746;50.892;4.064;2023-07-13T02:06:39;14.60;99.90
13354;DHT22;6746;50.892;4.064;2023-07-13T02:09:22;14.60;99.90
13354;DHT22;6746;50.892;4.064;2023-07-13T02:12:01;14.60;99.90
13354;DHT22;6746;50.892;4.064;2023-07-13T02:14:42;14.60;99.90
13354;DHT22;6746;50.892;4.064;2023-07-13T02:17:20;14.60;99.90
13354;DHT22;6746;50.892;4.064;2023-07-13T02:19:58;14.60;99.90
13354;DHT22;6746;50.892;4.064;2023-07-13T02:22:36;14.60;99.90
13354;DHT22;6746;50.892;4.064;2023-07-13T02:25:22;14.60;99.90
13354;DHT22;6746;50.892;4.064;2023-07-13T02:28:01;14.60;99.90
13354;DHT22;6746;50.892;4.064;2023-07-13T02:30:49;14.60;99.90
13354;DHT22;6746;50.892;4.064;2023-07-13T02:33:27;14.60;99.90
13354;DHT22;6746;50.892;4.064;2023-07-13T02:36:05;14.50;99.90
13354;DHT22;6746;50.892;4.064;2023-07-13T02:38:53;14.50;99.90
13354;DHT22;6746;50.892;4.064;2023-07-13T02:41:31;14.50;99.90
13354;DHT22;6746;50.892;4.064;2023-07-13T02:44:12;14.60;99.90
13354;DHT22;6746;50.892;4.064;2023-07-13T02:46:58;14.50;99.90
13354;DHT22;6746;50.892;4.064;2023-07-13T02:49:36;14.50;99.90
13354;DHT22;6746;50.892;4.064;2023-07-13T02:52:14;14.40;99.90
13354;DHT22;6746;50.892;4.064;2023-07-13T02:54:55;14.50;99.90
13354;DHT22;6746;50.892;4.064;2023-07-13T02:57:33;14.40;99.90
13354;DHT22;6746;50.892;4.064;2023-07-13T03:00:21;14.40;99.90
13354;DHT22;6746;50.892;4.064;2023-07-13T03:03:10;14.40;99.90
13354;DHT22;6746;50.892;4.064;2023-07-13T03:05:57;14.40;99.90
13354;DHT22;6746;50.892;4.064;2023-07-13T03:08:27;14.30;99.90
13354;DHT22;6746;50.892;4.064;2023-07-13T03:11:06;14.40;99.90
13354;DHT22;6746;50.892;4.064;2023-07-13T03:13:43;14.30;99.90
13354;DHT22;6746;50.892;4.064;2023-07-13T03:16:24;14.30;99.90
13354;DHT22;6746;50.892;4.064;2023-07-13T03:19:02;14.30;99.90
13354;DHT22;6746;50.892;4.064;2023-07-13T03:21:40;14.20;99.90
13354;DHT22;6746;50.892;4.064;2023-07-13T03:24:18;14.30;99.90
13354;DHT22;6746;50.892;4.064;2023-07-13T03:27:01;14.20;99.90
13354;DHT22;6746;50.892;4.064;2023-07-13T03:29:37;14.20;99.90
13354;DHT22;6746;50.892;4.064;2023-07-13T03:32:18;14.20;99.90
13354;DHT22;6746;50.892;4.064;2023-07-13T03:34:56;14.20;99.90
13354;DHT22;6746;50.892;4.064;2023-07-13T03:37:44;14.20;99.90
13354;DHT22;6746;50.892;4.064;2023-07-13T03:40:32;14.20;99.90
13354;DHT22;6746;50.892;4.064;2023-07-13T03:43:20;14.20;99.90
13354;DHT22;6746;50.892;4.064;2023-07-13T03:46:08;14.20;99.90
13354;DHT22;6746;50.892;4.064;2023-07-13T03:48:50;14.30;99.90
13354;DHT22;6746;50.892;4.064;2023-07-13T03:51:28;14.30;99.90
13354;DHT22;6746;50.892;4.064;2023-07-13T03:54:03;14.40;99.90
13354;DHT22;6746;50.892;4.064;2023-07-13T03:56:31;14.50;99.90
13354;DHT22;6746;50.892;4.064;2023-07-13T03:59:01;14.60;99.90
13354;DHT22;6746;50.892;4.064;2023-07-13T04:01:29;14.60;99.90
13354;DHT22;6746;50.892;4.064;2023-07-13T04:04:08;14.70;99.90
13354;DHT22;6746;50.892;4.064;2023-07-13T04:06:58;14.70;99.90
13354;DHT22;6746;50.892;4.064;2023-07-13T04:09:37;14.80;99.90
13354;DHT22;6746;50.892;4.064;2023-07-13T04:12:15;14.80;99.90
13354;DHT22;6746;50.892;4.064;2023-07-13T04:14:53;14.90;99.90
13354;DHT22;6746;50.892;4.064;2023-07-13T04:17:31;15.00;99.90
13354;DHT22;6746;50.892;4.064;2023-07-13T04:20:10;15.00;99.90
13354;DHT22;6746;50.892;4.064;2023-07-13T04:22:41;15.00;99.90
13354;DHT22;6746;50.892;4.064;2023-07-13T04:25:10;15.10;99.90
13354;DHT22;6746;50.892;4.064;2023-07-13T04:27:49;15.10;99.90
13354;DHT22;6746;50.892;4.064;2023-07-13T04:30:27;15.10;99.90
13354;DHT22;6746;50.892;4.064;2023-07-13T04:32:56;15.20;99.90
13354;DHT22;6746;50.892;4.064;2023-07-13T04:35:24;15.20;99.90
13354;DHT22;6746;50.892;4.064;2023-07-13T04:38:01;15.20;99.90
13354;DHT22;6746;50.892;4.064;2023-07-13T04:40:30;15.20;99.90
13354;DHT22;6746;50.892;4.064;2023-07-13T04:43:08;15.30;99.90
13354;DHT22;6746;50.892;4.064;2023-07-13T04:45:46;15.40;99.90
13354;DHT22;6746;50.892;4.064;2023-07-13T04:48:34;15.40;99.90
13354;DHT22;6746;50.892;4.064;2023-07-13T04:51:12;15.40;99.90
13354;DHT22;6746;50.892;4.064;2023-07-13T04:53:50;15.40;99.90
13354;DHT22;6746;50.892;4.064;2023-07-13T04:56:29;15.40;99.90
13354;DHT22;6746;50.892;4.064;2023-07-13T04:59:07;15.50;99.90
13354;DHT22;6746;50.892;4.064;2023-07-13T05:01:45;15.50;99.90
13354;DHT22;6746;50.892;4.064;2023-07-13T05:04:23;15.50;99.90
13354;DHT22;6746;50.892;4.064;2023-07-13T05:07:02;15.60;99.90
13354;DHT22;6746;50.892;4.064;2023-07-13T05:09:35;15.80;99.90
13354;DHT22;6746;50.892;4.064;2023-07-13T05:12:04;15.80;99.90
13354;DHT22;6746;50.892;4.064;2023-07-13T05:14:33;15.80;99.90
13354;DHT22;6746;50.892;4.064;2023-07-13T05:17:02;15.90;99.90
13354;DHT22;6746;50.892;4.064;2023-07-13T05:19:41;15.90;99.90
13354;DHT22;6746;50.892;4.064;2023-07-13T05:22:19;15.90;99.90
13354;DHT22;6746;50.892;4.064;2023-07-13T05:24:55;16.00;99.90
13354;DHT22;6746;50.892;4.064;2023-07-13T05:27:24;16.00;99.90
13354;DHT22;6746;50.892;4.064;2023-07-13T05:29:57;16.10;99.90
13354;DHT22;6746;50.892;4.064;2023-07-13T05:32:26;16.10;99.90
13354;DHT22;6746;50.892;4.064;2023-07-13T05:34:57;16.20;99.90
13354;DHT22;6746;50.892;4.064;2023-07-13T05:37:29;16.30;99.90
13354;DHT22;6746;50.892;4.064;2023-07-13T05:40:00;16.30;99.90
13354;DHT22;6746;50.892;4.064;2023-07-13T05:42:32;16.40;99.90
13354;DHT22;6746;50.892;4.064;2023-07-13T05:45:10;16.60;99.90
13354;DHT22;6746;50.892;4.064;2023-07-13T05:47:39;16.60;99.90
13354;DHT22;6746;50.892;4.064;2023-07-13T05:50:09;16.70;99.90
13354;DHT22;6746;50.892;4.064;2023-07-13T05:52:41;16.80;99.90
13354;DHT22;6746;50.892;4.064;2023-07-13T05:55:10;16.80;99.90
13354;DHT22;6746;50.892;4.064;2023-07-13T05:57:46;16.90;99.90
13354;DHT22;6746;50.892;4.064;2023-07-13T06:00:15;17.00;99.90
13354;DHT22;6746;50.892;4.064;2023-07-13T06:02:49;17.00;99.90
13354;DHT22;6746;50.892;4.064;2023-07-13T06:05:18;17.00;99.90
13354;DHT22;6746;50.892;4.064;2023-07-13T06:07:57;17.10;99.90
13354;DHT22;6746;50.892;4.064;2023-07-13T06:10:44;17.30;99.90
13354;DHT22;6746;50.892;4.064;2023-07-13T06:13:22;17.30;99.90
13354;DHT22;6746;50.892;4.064;2023-07-13T06:16:01;17.40;99.90
13354;DHT22;6746;50.892;4.064;2023-07-13T06:18:30;17.50;99.90
13354;DHT22;6746;50.892;4.064;2023-07-13T06:20:58;17.50;99.90
13354;DHT22;6746;50.892;4.064;2023-07-13T06:23:27;17.70;99.90
13354;DHT22;6746;50.892;4.064;2023-07-13T06:25:55;17.80;99.90
13354;DHT22;6746;50.892;4.064;2023-07-13T06:28:30;17.90;99.90
13354;DHT22;6746;50.892;4.064;2023-07-13T06:30:59;18.10;99.90
13354;DHT22;6746;50.892;4.064;2023-07-13T06:33:30;18.40;99.90
13354;DHT22;6746;50.892;4.064;2023-07-13T06:35:59;18.70;99.90
13354;DHT22;6746;50.892;4.064;2023-07-13T06:38:37;18.90;99.90
13354;DHT22;6746;50.892;4.064;2023-07-13T06:41:06;19.00;99.90
13354;DHT22;6746;50.892;4.064;2023-07-13T06:43:34;19.30;99.90
13354;DHT22;6746;50.892;4.064;2023-07-13T06:46:03;19.50;99.90
13354;DHT22;6746;50.892;4.064;2023-07-13T06:48:32;19.70;99.90
13354;DHT22;6746;50.892;4.064;2023-07-13T06:51:02;19.80;99.90
13354;DHT22;6746;50.892;4.064;2023-07-13T06:53:41;19.60;99.90
13354;DHT22;6746;50.892;4.064;2023-07-13T06:56:19;19.70;99.90
13354;DHT22;6746;50.892;4.064;2023-07-13T06:58:55;19.90;99.90
13354;DHT22;6746;50.892;4.064;2023-07-13T07:01:24;20.00;99.90
13354;DHT22;6746;50.892;4.064;2023-07-13T07:03:55;20.10;99.90
13354;DHT22;6746;50.892;4.064;2023-07-13T07:06:24;20.10;99.90
13354;DHT22;6746;50.892;4.064;2023-07-13T07:08:58;20.10;99.90
13354;DHT22;6746;50.892;4.064;2023-07-13T07:11:27;20.20;99.90
13354;DHT22;6746;50.892;4.064;2023-07-13T07:14:05;20.60;99.90
13354;DHT22;6746;50.892;4.064;2023-07-13T07:16:37;20.80;99.90
13354;DHT22;6746;50.892;4.064;2023-07-13T07:19:05;21.10;99.90
13354;DHT22;6746;50.892;4.064;2023-07-13T07:21:44;21.30;99.90
13354;DHT22;6746;50.892;4.064;2023-07-13T07:24:22;21.40;99.90
13354;DHT22;6746;50.892;4.064;2023-07-13T07:26:53;21.20;99.90
13354;DHT22;6746;50.892;4.064;2023-07-13T07:29:22;21.00;99.90
13354;DHT22;6746;50.892;4.064;2023-07-13T07:31:58;20.90;99.90
13354;DHT22;6746;50.892;4.064;2023-07-13T07:34:25;21.30;99.90
13354;DHT22;6746;50.892;4.064;2023-07-13T07:37:04;21.70;99.90
13354;DHT22;6746;50.892;4.064;2023-07-13T07:39:45;21.90;99.90
13354;DHT22;6746;50.892;4.064;2023-07-13T07:42:23;22.30;99.90
13354;DHT22;6746;50.892;4.064;2023-07-13T07:45:01;22.70;99.90
13354;DHT22;6746;50.892;4.064;2023-07-13T07:47:35;22.70;99.90
13354;DHT22;6746;50.892;4.064;2023-07-13T07:50:04;22.30;99.90
13354;DHT22;6746;50.892;4.064;2023-07-13T07:52:45;22.30;99.90
13354;DHT22;6746;50.892;4.064;2023-07-13T07:55:17;22.60;99.90
13354;DHT22;6746;50.892;4.064;2023-07-13T07:57:48;22.60;99.90
13354;DHT22;6746;50.892;4.064;2023-07-13T08:00:17;22.30;99.90
13354;DHT22;6746;50.892;4.064;2023-07-13T08:02:49;22.10;99.90
13354;DHT22;6746;50.892;4.064;2023-07-13T08:05:18;22.00;99.90
13354;DHT22;6746;50.892;4.064;2023-07-13T08:07:57;21.80;99.90
13354;DHT22;6746;50.892;4.064;2023-07-13T08:10:28;21.80;99.90
13354;DHT22;6746;50.892;4.064;2023-07-13T08:12:57;21.70;99.90
13354;DHT22;6746;50.892;4.064;2023-07-13T08:15:46;21.80;99.90
13354;DHT22;6746;50.892;4.064;2023-07-13T08:18:19;21.90;99.90
13354;DHT22;6746;50.892;4.064;2023-07-13T08:20:48;21.50;99.90
13354;DHT22;6746;50.892;4.064;2023-07-13T08:23:27;21.50;99.90
13354;DHT22;6746;50.892;4.064;2023-07-13T08:26:05;21.80;99.90
13354;DHT22;6746;50.892;4.064;2023-07-13T08:28:33;22.50;99.90
13354;DHT22;6746;50.892;4.064;2023-07-13T08:31:05;23.10;99.90
13354;DHT22;6746;50.892;4.064;2023-07-13T08:33:37;23.20;99.90
13354;DHT22;6746;50.892;4.064;2023-07-13T08:36:07;23.20;99.90
13354;DHT22;6746;50.892;4.064;2023-07-13T08:38:46;22.90;99.90
13354;DHT22;6746;50.892;4.064;2023-07-13T08:41:24;22.90;99.90
13354;DHT22;6746;50.892;4.064;2023-07-13T08:44:02;22.60;99.90
13354;DHT22;6746;50.892;4.064;2023-07-13T08:46:40;22.80;99.90
13354;DHT22;6746;50.892;4.064;2023-07-13T08:49:19;22.90;99.90
13354;DHT22;6746;50.892;4.064;2023-07-13T08:51:58;22.90;99.90
13354;DHT22;6746;50.892;4.064;2023-07-13T08:54:44;23.20;99.90
13354;DHT22;6746;50.892;4.064;2023-07-13T08:57:24;23.50;99.90
13354;DHT22;6746;50.892;4.064;2023-07-13T08:59:50;23.80;99.90
13354;DHT22;6746;50.892;4.064;2023-07-13T09:02:35;23.90;99.90
13354;DHT22;6746;50.892;4.064;2023-07-13T09:05:10;24.10;99.90
13354;DHT22;6746;50.892;4.064;2023-07-13T09:08:04;24.40;99.90
13354;DHT22;6746;50.892;4.064;2023-07-13T09:10:46;24.20;99.90
13354;DHT22;6746;50.892;4.064;2023-07-13T09:14:05;24.10;99.90
13354;DHT22;6746;50.892;4.064;2023-07-13T09:16:29;23.70;99.90
13354;DHT22;6746;50.892;4.064;2023-07-13T09:18:59;23.50;99.90
13354;DHT22;6746;50.892;4.064;2023-07-13T09:21:33;23.90;99.90
13354;DHT22;6746;50.892;4.064;2023-07-13T09:27:36;24.40;99.90
13354;DHT22;6746;50.892;4.064;2023-07-13T09:32:53;23.70;99.90
13354;DHT22;6746;50.892;4.064;2023-07-13T09:35:31;23.50;99.90
13354;DHT22;6746;50.892;4.064;2023-07-13T09:38:13;23.20;99.90
13354;DHT22;6746;50.892;4.064;2023-07-13T09:46:51;23.20;99.90
13354;DHT22;6746;50.892;4.064;2023-07-13T09:49:14;23.50;99.90
13354;DHT22;6746;50.892;4.064;2023-07-13T09:51:46;23.40;99.90
13354;DHT22;6746;50.892;4.064;2023-07-13T09:54:21;23.30;99.90
13354;DHT22;6746;50.892;4.064;2023-07-13T09:56:59;23.30;99.90
13354;DHT22;6746;50.892;4.064;2023-07-13T09:59:34;23.20;99.90
13354;DHT22;6746;50.892;4.064;2023-07-13T10:02:02;23.20;99.90
13354;DHT22;6746;50.892;4.064;2023-07-13T10:04:34;24.20;99.90
13354;DHT22;6746;50.892;4.064;2023-07-13T10:07:09;23.10;99.90
13354;DHT22;6746;50.892;4.064;2023-07-13T10:09:41;23.20;99.90
13354;DHT22;6746;50.892;4.064;2023-07-13T10:12:14;23.00;99.90
13354;DHT22;6746;50.892;4.064;2023-07-13T10:14:57;22.90;99.90
13354;DHT22;6746;50.892;4.064;2023-07-13T10:17:35;23.30;99.90
13354;DHT22;6746;50.892;4.064;2023-07-13T10:20:13;23.60;99.90
13354;DHT22;6746;50.892;4.064;2023-07-13T10:23:00;23.80;99.90
13354;DHT22;6746;50.892;4.064;2023-07-13T10:25:31;24.30;99.90
13354;DHT22;6746;50.892;4.064;2023-07-13T10:28:25;24.60;99.90
13354;DHT22;6746;50.892;4.064;2023-07-13T10:31:06;24.30;99.90
13354;DHT22;6746;50.892;4.064;2023-07-13T10:33:33;23.80;99.90
13354;DHT22;6746;50.892;4.064;2023-07-13T10:39:02;24.30;99.90
13354;DHT22;6746;50.892;4.064;2023-07-13T10:41:30;24.50;99.90
13354;DHT22;6746;50.892;4.064;2023-07-13T10:44:02;24.70;99.90
13354;DHT22;6746;50.892;4.064;2023-07-13T10:46:31;24.50;99.90
13354;DHT22;6746;50.892;4.064;2023-07-13T10:49:02;24.20;99.90
13354;DHT22;6746;50.892;4.064;2023-07-13T10:51:31;24.10;99.90
13354;DHT22;6746;50.892;4.064;2023-07-13T10:56:46;24.60;99.90
13354;DHT22;6746;50.892;4.064;2023-07-13T10:59:17;24.90;99.90
13354;DHT22;6746;50.892;4.064;2023-07-13T11:02:28;25.10;99.90
13354;DHT22;6746;50.892;4.064;2023-07-13T11:04:46;25.10;99.90
13354;DHT22;6746;50.892;4.064;2023-07-13T11:07:21;25.30;99.90
13354;DHT22;6746;50.892;4.064;2023-07-13T11:09:53;25.00;99.90
13354;DHT22;6746;50.892;4.064;2023-07-13T11:12:52;24.60;99.90
13354;DHT22;6746;50.892;4.064;2023-07-13T11:15:39;24.60;99.90
13354;DHT22;6746;50.892;4.064;2023-07-13T11:18:03;24.70;99.90
13354;DHT22;6746;50.892;4.064;2023-07-13T11:20:42;24.80;99.90
13354;DHT22;6746;50.892;4.064;2023-07-13T11:23:26;24.40;99.90
13354;DHT22;6746;50.892;4.064;2023-07-13T11:25:51;23.90;99.90
13354;DHT22;6746;50.892;4.064;2023-07-13T11:28:24;23.60;99.90
13354;DHT22;6746;50.892;4.064;2023-07-13T11:36:18;23.30;99.90
13354;DHT22;6746;50.892;4.064;2023-07-13T11:38:47;23.70;99.90
13354;DHT22;6746;50.892;4.064;2023-07-13T11:41:36;24.20;99.90
13354;DHT22;6746;50.892;4.064;2023-07-13T11:44:16;24.40;99.90
13354;DHT22;6746;50.892;4.064;2023-07-13T11:46:53;24.40;99.90
13354;DHT22;6746;50.892;4.064;2023-07-13T11:49:43;23.90;99.90
13354;DHT22;6746;50.892;4.064;2023-07-13T11:52:26;22.90;99.90
13354;DHT22;6746;50.892;4.064;2023-07-13T11:55:03;21.70;99.90
13354;DHT22;6746;50.892;4.064;2023-07-13T11:58:14;21.70;99.90
13354;DHT22;6746;50.892;4.064;2023-07-13T12:00:30;21.50;99.90
13354;DHT22;6746;50.892;4.064;2023-07-13T12:03:07;21.30;99.90
13354;DHT22;6746;50.892;4.064;2023-07-13T12:05:55;21.00;99.90
13354;DHT22;6746;50.892;4.064;2023-07-13T12:08:37;21.00;99.90
13354;DHT22;6746;50.892;4.064;2023-07-13T12:11:23;21.30;99.90
13354;DHT22;6746;50.892;4.064;2023-07-13T12:14:01;21.60;99.90
13354;DHT22;6746;50.892;4.064;2023-07-13T12:16:39;21.90;99.90
13354;DHT22;6746;50.892;4.064;2023-07-13T12:19:17;22.10;99.90
13354;DHT22;6746;50.892;4.064;2023-07-13T12:21:41;22.20;99.90
13354;DHT22;6746;50.892;4.064;2023-07-13T12:24:19;22.20;99.90
13354;DHT22;6746;50.892;4.064;2023-07-13T12:26:58;22.20;99.90
13354;DHT22;6746;50.892;4.064;2023-07-13T12:29:23;22.10;99.90
13354;DHT22;6746;50.892;4.064;2023-07-13T12:32:00;22.00;99.90
13354;DHT22;6746;50.892;4.064;2023-07-13T12:34:28;22.10;99.90
13354;DHT22;6746;50.892;4.064;2023-07-13T12:37:08;22.20;99.90
13354;DHT22;6746;50.892;4.064;2023-07-13T12:39:34;22.50;99.90
13354;DHT22;6746;50.892;4.064;2023-07-13T12:42:17;22.70;99.90
13354;DHT22;6746;50.892;4.064;2023-07-13T12:44:58;22.90;99.90
13354;DHT22;6746;50.892;4.064;2023-07-13T12:47:26;23.20;99.90
13354;DHT22;6746;50.892;4.064;2023-07-13T12:49:56;23.20;99.90
13354;DHT22;6746;50.892;4.064;2023-07-13T12:52:34;23.20;99.90
13354;DHT22;6746;50.892;4.064;2023-07-13T12:55:17;23.10;99.90
13354;DHT22;6746;50.892;4.064;2023-07-13T12:57:50;23.00;99.90
13354;DHT22;6746;50.892;4.064;2023-07-13T13:00:29;22.80;99.90
13354;DHT22;6746;50.892;4.064;2023-07-13T13:05:40;23.00;99.90
13354;DHT22;6746;50.892;4.064;2023-07-13T13:08:18;23.30;99.90
13354;DHT22;6746;50.892;4.064;2023-07-13T13:10:56;23.80;99.90
13354;DHT22;6746;50.892;4.064;2023-07-13T13:13:32;24.20;99.90
13354;DHT22;6746;50.892;4.064;2023-07-13T13:16:02;24.30;99.90
13354;DHT22;6746;50.892;4.064;2023-07-13T13:18:38;24.20;99.90
13354;DHT22;6746;50.892;4.064;2023-07-13T13:21:07;24.30;99.90
13354;DHT22;6746;50.892;4.064;2023-07-13T13:23:45;24.50;99.90
13354;DHT22;6746;50.892;4.064;2023-07-13T13:26:23;24.70;99.90
13354;DHT22;6746;50.892;4.064;2023-07-13T13:29:03;24.90;99.90
13354;DHT22;6746;50.892;4.064;2023-07-13T13:31:35;25.00;99.90
13354;DHT22;6746;50.892;4.064;2023-07-13T13:34:04;24.80;99.90
13354;DHT22;6746;50.892;4.064;2023-07-13T13:36:43;24.70;99.90
13354;DHT22;6746;50.892;4.064;2023-07-13T13:39:25;24.70;99.90
13354;DHT22;6746;50.892;4.064;2023-07-13T13:42:02;24.80;99.90
13354;DHT22;6746;50.892;4.064;2023-07-13T13:44:49;24.70;99.90
13354;DHT22;6746;50.892;4.064;2023-07-13T13:47:29;24.60;99.90
13354;DHT22;6746;50.892;4.064;2023-07-13T13:50:14;24.40;99.90
13354;DHT22;6746;50.892;4.064;2023-07-13T13:52:52;24.60;99.90
13354;DHT22;6746;50.892;4.064;2023-07-13T13:55:29;24.70;99.90
13354;DHT22;6746;50.892;4.064;2023-07-13T13:57:57;24.70;99.90
13354;DHT22;6746;50.892;4.064;2023-07-13T14:00:34;24.60;99.90
13354;DHT22;6746;50.892;4.064;2023-07-13T14:03:03;24.90;99.90
13354;DHT22;6746;50.892;4.064;2023-07-13T14:05:42;25.00;99.90
13354;DHT22;6746;50.892;4.064;2023-07-13T14:08:20;25.10;99.90
13354;DHT22;6746;50.892;4.064;2023-07-13T14:10:53;25.10;99.90
13354;DHT22;6746;50.892;4.064;2023-07-13T14:13:23;25.40;99.90
13354;DHT22;6746;50.892;4.064;2023-07-13T14:15:59;25.50;99.90
13354;DHT22;6746;50.892;4.064;2023-07-13T14:18:28;25.40;99.90
13354;DHT22;6746;50.892;4.064;2023-07-13T14:21:16;25.30;99.90
13354;DHT22;6746;50.892;4.064;2023-07-13T14:23:52;25.50;99.90
13354;DHT22;6746;50.892;4.064;2023-07-13T14:26:31;25.60;99.90
13354;DHT22;6746;50.892;4.064;2023-07-13T14:29:02;25.40;99.90
13354;DHT22;6746;50.892;4.064;2023-07-13T14:31:30;25.40;99.90
13354;DHT22;6746;50.892;4.064;2023-07-13T14:34:08;25.20;99.90
13354;DHT22;6746;50.892;4.064;2023-07-13T14:36:39;25.30;99.90
13354;DHT22;6746;50.892;4.064;2023-07-13T14:39:19;25.20;99.90
13354;DHT22;6746;50.892;4.064;2023-07-13T14:41:49;25.40;99.90
13354;DHT22;6746;50.892;4.064;2023-07-13T14:44:16;25.60;99.90
13354;DHT22;6746;50.892;4.064;2023-07-13T14:46:54;25.70;99.90
13354;DHT22;6746;50.892;4.064;2023-07-13T14:49:33;25.80;99.90
13354;DHT22;6746;50.892;4.064;2023-07-13T14:52:20;25.50;99.90
13354;DHT22;6746;50.892;4.064;2023-07-13T14:54:57;25.60;99.90
13354;DHT22;6746;50.892;4.064;2023-07-13T14:57:36;25.40;99.90
13354;DHT22;6746;50.892;4.064;2023-07-13T15:00:21;25.50;99.90
13354;DHT22;6746;50.892;4.064;2023-07-13T15:02:59;25.60;99.90
13354;DHT22;6746;50.892;4.064;2023-07-13T15:05:31;25.60;99.90
13354;DHT22;6746;50.892;4.064;2023-07-13T15:08:00;25.60;99.90
13354;DHT22;6746;50.892;4.064;2023-07-13T15:10:29;25.60;99.90
13354;DHT22;6746;50.892;4.064;2023-07-13T15:13:01;25.60;99.90
13354;DHT22;6746;50.892;4.064;2023-07-13T15:15:29;25.60;99.90
13354;DHT22;6746;50.892;4.064;2023-07-13T15:17:57;25.50;99.90
13354;DHT22;6746;50.892;4.064;2023-07-13T15:20:36;25.70;99.90
13354;DHT22;6746;50.892;4.064;2023-07-13T15:23:15;25.70;99.90
13354;DHT22;6746;50.892;4.064;2023-07-13T15:25:45;25.70;99.90
13354;DHT22;6746;50.892;4.064;2023-07-13T15:28:14;25.50;99.90
13354;DHT22;6746;50.892;4.064;2023-07-13T15:31:04;25.70;99.90
13354;DHT22;6746;50.892;4.064;2023-07-13T15:33:39;25.80;99.90
13354;DHT22;6746;50.892;4.064;2023-07-13T15:36:08;26.00;99.90
13354;DHT22;6746;50.892;4.064;2023-07-13T15:38:41;26.00;99.90
13354;DHT22;6746;50.892;4.064;2023-07-13T15:41:23;25.80;99.90
13354;DHT22;6746;50.892;4.064;2023-07-13T15:43:58;25.70;99.90
13354;DHT22;6746;50.892;4.064;2023-07-13T15:46:35;25.60;99.90
13354;DHT22;6746;50.892;4.064;2023-07-13T15:49:14;25.30;99.90
13354;DHT22;6746;50.892;4.064;2023-07-13T15:51:46;25.30;99.90
13354;DHT22;6746;50.892;4.064;2023-07-13T15:54:16;25.20;99.90
13354;DHT22;6746;50.892;4.064;2023-07-13T15:56:54;25.30;99.90
13354;DHT22;6746;50.892;4.064;2023-07-13T15:59:31;25.50;99.90
13354;DHT22;6746;50.892;4.064;2023-07-13T16:02:00;25.70;99.90
13354;DHT22;6746;50.892;4.064;2023-07-13T16:04:28;25.70;99.90
13354;DHT22;6746;50.892;4.064;2023-07-13T16:07:09;25.70;99.90
13354;DHT22;6746;50.892;4.064;2023-07-13T16:09:39;25.40;99.90
13354;DHT22;6746;50.892;4.064;2023-07-13T16:12:11;25.50;99.90
13354;DHT22;6746;50.892;4.064;2023-07-13T16:14:49;25.40;99.90
13354;DHT22;6746;50.892;4.064;2023-07-13T16:17:28;25.20;99.90
13354;DHT22;6746;50.892;4.064;2023-07-13T16:19:56;25.30;99.90
13354;DHT22;6746;50.892;4.064;2023-07-13T16:22:27;25.40;99.90
13354;DHT22;6746;50.892;4.064;2023-07-13T16:24:59;25.40;99.90
13354;DHT22;6746;50.892;4.064;2023-07-13T16:27:28;25.50;99.90
13354;DHT22;6746;50.892;4.064;2023-07-13T16:30:00;25.40;99.90
13354;DHT22;6746;50.892;4.064;2023-07-13T16:32:31;25.40;99.90
13354;DHT22;6746;50.892;4.064;2023-07-13T16:35:08;25.50;99.90
13354;DHT22;6746;50.892;4.064;2023-07-13T16:37:37;25.60;99.90
13354;DHT22;6746;50.892;4.064;2023-07-13T16:40:26;25.60;99.90
13354;DHT22;6746;50.892;4.064;2023-07-13T16:42:52;25.60;99.90
13354;DHT22;6746;50.892;4.064;2023-07-13T16:45:27;25.60;99.90
13354;DHT22;6746;50.892;4.064;2023-07-13T16:47:55;25.30;99.90
13354;DHT22;6746;50.892;4.064;2023-07-13T16:50:33;25.30;99.90
13354;DHT22;6746;50.892;4.064;2023-07-13T16:53:18;25.30;99.90
13354;DHT22;6746;50.892;4.064;2023-07-13T16:55:56;25.20;99.90
13354;DHT22;6746;50.892;4.064;2023-07-13T16:58:34;25.20;99.90
13354;DHT22;6746;50.892;4.064;2023-07-13T17:01:14;25.20;99.90
13354;DHT22;6746;50.892;4.064;2023-07-13T17:03:54;24.90;99.90
13354;DHT22;6746;50.892;4.064;2023-07-13T17:06:33;24.70;99.90
13354;DHT22;6746;50.892;4.064;2023-07-13T17:09:04;24.50;99.90
13354;DHT22;6746;50.892;4.064;2023-07-13T17:11:34;24.30;99.90